createdAt,value
2023-02-15T00:02:22.131Z,-1.89
2023-02-15T00:05:23.963Z,-1.90
2023-02-15T00:08:25.768Z,-1.89
2023-02-15T00:11:46.437Z,-1.88
2023-02-15T00:14:48.555Z,-1.88
2023-02-15T00:17:50.277Z,-1.87
2023-02-15T00:20:52.101Z,-1.88
2023-02-15T00:23:53.892Z,-1.89
2023-02-15T00:26:55.714Z,-1.91
2023-02-15T00:29:57.658Z,-1.93
2023-02-15T00:32:59.402Z,-1.94
2023-02-15T00:36:02.205Z,-1.93
2023-02-15T00:39:05.621Z,-1.95
2023-02-15T00:42:07.483Z,-2.00
2023-02-15T00:45:09.907Z,-2.13
2023-02-15T00:48:11.665Z,-2.15
2023-02-15T00:51:13.533Z,-2.12
2023-02-15T00:54:15.326Z,-2.19
2023-02-15T00:57:17.052Z,-2.18
2023-02-15T01:00:18.976Z,-2.14
2023-02-15T01:03:22.177Z,-2.17
2023-02-15T01:06:24.039Z,-2.20
2023-02-15T01:09:25.917Z,-2.19
2023-02-15T01:12:27.846Z,-2.19
2023-02-15T01:15:29.991Z,-2.20
2023-02-15T01:18:32.660Z,-2.22
2023-02-15T01:21:35.508Z,-2.24
2023-02-15T01:24:37.452Z,-2.25
2023-02-15T01:27:39.247Z,-2.28
2023-02-15T01:30:42.399Z,-2.31
2023-02-15T01:33:44.282Z,-2.35
2023-02-15T01:36:46.004Z,-2.41
2023-02-15T01:39:47.726Z,-2.45
2023-02-15T01:42:56.200Z,-2.53
2023-02-15T01:45:58.126Z,-2.58
2023-02-15T01:49:20.991Z,-2.63
2023-02-15T01:52:22.832Z,-2.61
2023-02-15T01:55:26.538Z,-2.65
2023-02-15T01:58:30.103Z,-2.66
2023-02-15T02:01:32.188Z,-2.65
2023-02-15T02:04:42.419Z,-2.66
2023-02-15T02:07:46.027Z,-2.65
2023-02-15T02:10:47.807Z,-2.65
2023-02-15T02:13:51.705Z,-2.68
2023-02-15T02:17:21.518Z,-2.69
2023-02-15T02:20:38.575Z,-2.69
2023-02-15T02:23:58.619Z,-2.85
2023-02-15T02:27:20.614Z,-2.77
2023-02-15T02:30:34.703Z,-2.75
2023-02-15T02:33:52.969Z,-2.76
2023-02-15T02:37:13.064Z,-2.75
2023-02-15T02:40:17.774Z,-2.79
2023-02-15T02:43:50.173Z,-2.75
2023-02-15T02:46:55.464Z,-2.77
2023-02-15T02:50:05.057Z,-2.74
2023-02-15T02:53:07.181Z,-2.75
2023-02-15T02:56:22.817Z,-2.80
2023-02-15T02:59:29.431Z,-2.70
2023-02-15T03:02:36.850Z,-2.74
2023-02-15T03:05:41.243Z,-2.72
2023-02-15T03:08:55.995Z,-2.67
2023-02-15T03:11:57.949Z,-3.29
2023-02-15T03:15:02.090Z,-3.42
2023-02-15T03:18:04.581Z,-3.37
2023-02-15T03:21:07.567Z,-3.24
2023-02-15T03:24:16.518Z,-3.13
2023-02-15T03:27:21.827Z,-3.07
2023-02-15T03:30:24.300Z,-3.31
2023-02-15T03:33:27.824Z,-3.24
2023-02-15T03:36:43.639Z,-3.13
2023-02-15T03:39:45.375Z,-3.07
2023-02-15T03:42:48.738Z,-3.12
2023-02-15T03:45:56.576Z,-3.10
2023-02-15T03:49:11.200Z,-3.04
2023-02-15T03:52:14.255Z,-3.05
2023-02-15T03:55:16.108Z,-3.04
2023-02-15T03:58:36.361Z,-3.05
2023-02-15T04:01:59.821Z,-3.07
2023-02-15T04:05:01.526Z,-3.23
2023-02-15T04:08:03.567Z,-3.19
2023-02-15T04:11:05.364Z,-3.23
2023-02-15T04:14:27.011Z,-3.24
2023-02-15T04:17:28.816Z,-3.26
2023-02-15T04:20:49.194Z,-3.22
2023-02-15T04:24:09.470Z,-3.26
2023-02-15T04:27:11.179Z,-3.25
2023-02-15T04:30:14.387Z,-3.26
2023-02-15T04:33:16.214Z,-3.39
2023-02-15T04:36:17.982Z,-3.34
2023-02-15T04:39:19.757Z,-3.36
2023-02-15T04:42:21.607Z,-3.42
2023-02-15T04:45:23.376Z,-3.41
2023-02-15T04:48:25.200Z,-3.40
2023-02-15T04:51:27.047Z,-3.47
2023-02-15T04:54:28.816Z,-3.53
2023-02-15T04:57:30.630Z,-3.48
2023-02-15T05:00:32.374Z,-3.52
2023-02-15T05:03:34.360Z,-3.51
2023-02-15T05:06:36.221Z,-3.60
2023-02-15T05:09:38.176Z,-3.53
2023-02-15T05:12:40.178Z,-3.51
2023-02-15T05:15:44.640Z,-3.50
2023-02-15T05:18:46.847Z,-3.53
2023-02-15T05:21:48.569Z,-3.51
2023-02-15T05:25:08.720Z,-3.51
2023-02-15T05:28:22.747Z,-3.53
2023-02-15T05:31:24.766Z,-3.54
2023-02-15T05:34:26.762Z,-3.54
2023-02-15T05:37:28.553Z,-3.55
2023-02-15T05:40:30.616Z,-3.58
2023-02-15T05:43:33.119Z,-3.59
2023-02-15T05:46:34.974Z,-3.58
2023-02-15T05:49:37.085Z,-3.60
2023-02-15T05:52:38.840Z,-3.61
2023-02-15T05:55:41.698Z,-3.59
2023-02-15T05:58:43.564Z,-3.63
2023-02-15T06:01:45.558Z,-3.62
2023-02-15T06:04:47.331Z,-3.62
2023-02-15T06:07:49.035Z,-3.58
2023-02-15T06:10:50.833Z,-3.58
2023-02-15T06:13:52.504Z,-3.55
2023-02-15T06:16:54.204Z,-3.51
2023-02-15T06:19:55.931Z,-3.45
2023-02-15T06:22:57.709Z,-3.36
2023-02-15T06:25:59.737Z,-2.88
2023-02-15T06:29:01.625Z,-2.39
2023-02-15T06:32:03.667Z,-0.37
2023-02-15T06:35:05.813Z,1.03
2023-02-15T06:38:09.704Z,0.85
2023-02-15T06:41:11.940Z,2.13
2023-02-15T06:44:13.677Z,2.01
2023-02-15T06:47:15.595Z,2.30
2023-02-15T06:50:17.504Z,4.08
2023-02-15T06:53:19.317Z,5.10
2023-02-15T06:56:21.028Z,5.80
2023-02-15T06:59:22.817Z,5.76
2023-02-15T07:02:24.520Z,4.83
2023-02-15T07:05:32.627Z,6.37
2023-02-15T07:08:35.285Z,6.44
2023-02-15T07:11:56.052Z,6.86
2023-02-15T07:14:59.262Z,5.49
2023-02-15T07:18:01.051Z,6.15
2023-02-15T07:21:03.088Z,3.82
2023-02-15T07:24:05.019Z,3.59
2023-02-15T07:27:11.419Z,3.19
2023-02-15T07:30:16.715Z,3.41
2023-02-15T07:33:24.816Z,3.42
2023-02-15T07:36:26.666Z,3.20
2023-02-15T07:39:28.440Z,3.08
2023-02-15T07:42:31.710Z,2.63
2023-02-15T07:45:33.433Z,2.14
2023-02-15T07:48:35.940Z,1.63
2023-02-15T07:51:37.723Z,1.34
2023-02-15T07:54:39.790Z,1.35
2023-02-15T07:57:45.920Z,1.06
2023-02-15T08:01:02.653Z,1.34
2023-02-15T08:04:06.617Z,1.35
2023-02-15T08:07:08.926Z,1.34
2023-02-15T08:10:10.796Z,1.15
2023-02-15T08:13:12.572Z,1.22
2023-02-15T08:16:14.452Z,1.45
2023-02-15T08:19:20.663Z,1.60
2023-02-15T08:22:22.565Z,1.98
2023-02-15T08:25:24.254Z,2.06
2023-02-15T08:28:26.051Z,2.22
2023-02-15T08:31:28.617Z,2.21
2023-02-15T08:34:32.563Z,2.29
2023-02-15T08:37:34.370Z,2.51
2023-02-15T08:40:36.193Z,2.68
2023-02-15T08:43:39.054Z,2.72
2023-02-15T08:46:42.726Z,2.34
2023-02-15T08:49:44.783Z,3.07
2023-02-15T08:52:47.063Z,2.86
2023-02-15T08:55:59.377Z,3.68
2023-02-15T08:59:01.512Z,4.22
2023-02-15T09:02:04.174Z,4.42
2023-02-15T09:05:06.308Z,4.74
2023-02-15T09:08:08.051Z,4.85
2023-02-15T09:11:23.821Z,5.04
2023-02-15T09:14:27.125Z,5.20
2023-02-15T09:17:28.866Z,5.47
2023-02-15T09:20:30.700Z,5.86
2023-02-15T09:23:32.501Z,6.07
2023-02-15T09:26:37.664Z,6.19
2023-02-15T09:29:39.597Z,6.29
2023-02-15T09:32:41.387Z,6.64
2023-02-15T09:35:43.088Z,6.64
2023-02-15T09:38:46.674Z,6.75
2023-02-15T09:42:25.461Z,6.79
2023-02-15T09:45:49.156Z,6.87
2023-02-15T09:48:54.822Z,6.82
2023-02-15T09:52:08.673Z,6.88
2023-02-15T09:55:30.214Z,6.73
2023-02-15T09:58:44.482Z,6.84
2023-02-15T10:01:50.285Z,7.17
2023-02-15T10:05:37.040Z,7.30
2023-02-15T10:08:57.203Z,7.35
2023-02-15T10:12:36.634Z,7.36
2023-02-15T10:15:58.246Z,7.56
2023-02-15T10:19:28.545Z,7.69
2023-02-15T10:22:42.594Z,7.73
2023-02-15T10:25:48.270Z,7.86
2023-02-15T10:28:50.443Z,7.82
2023-02-15T10:31:59.401Z,7.98
2023-02-15T10:35:20.624Z,7.99
2023-02-15T10:38:31.426Z,8.01
2023-02-15T10:42:07.633Z,8.11
2023-02-15T10:45:12.256Z,8.23
2023-02-15T10:48:19.904Z,8.38
2023-02-15T10:51:50.294Z,8.22
2023-02-15T10:55:13.800Z,8.57
2023-02-15T10:58:30.702Z,8.62
2023-02-15T11:01:54.065Z,8.70
2023-02-15T11:05:09.911Z,8.78
2023-02-15T11:08:12.452Z,8.78
2023-02-15T11:11:23.416Z,9.01
2023-02-15T11:14:40.987Z,8.82
2023-02-15T11:17:45.622Z,8.73
2023-02-15T11:21:18.623Z,8.97
2023-02-15T11:24:21.806Z,8.61
2023-02-15T11:27:26.885Z,8.65
2023-02-15T11:30:45.798Z,8.49
2023-02-15T11:33:52.720Z,8.69
2023-02-15T11:36:56.489Z,8.92
2023-02-15T11:39:58.265Z,9.02
2023-02-15T11:43:03.378Z,9.04
2023-02-15T11:46:05.778Z,8.89
2023-02-15T11:49:31.700Z,9.15
2023-02-15T11:52:33.597Z,9.17
2023-02-15T11:55:36.159Z,8.90
2023-02-15T11:58:46.381Z,8.97
2023-02-15T12:01:48.313Z,9.01
2023-02-15T12:04:55.345Z,9.14
2023-02-15T12:08:02.966Z,9.06
2023-02-15T12:11:13.840Z,8.99
2023-02-15T12:14:18.490Z,8.83
2023-02-15T12:17:23.543Z,9.05
2023-02-15T12:20:35.454Z,8.92
2023-02-15T12:23:44.810Z,9.21
2023-02-15T12:26:57.296Z,9.37
2023-02-15T12:30:11.268Z,9.42
2023-02-15T12:33:25.109Z,9.40
2023-02-15T12:36:31.222Z,9.41
2023-02-15T12:39:33.639Z,9.36
2023-02-15T12:42:45.760Z,9.48
2023-02-15T12:45:47.770Z,9.66
2023-02-15T12:49:08.858Z,9.47
2023-02-15T12:52:21.105Z,9.69
2023-02-15T12:55:26.497Z,9.85
2023-02-15T12:58:33.277Z,9.97
2023-02-15T13:01:34.960Z,9.37
2023-02-15T13:04:37.474Z,9.55
2023-02-15T13:07:39.365Z,9.81
2023-02-15T13:10:54.249Z,9.81
2023-02-15T13:13:59.332Z,9.44
2023-02-15T13:17:02.719Z,9.55
2023-02-15T13:20:18.065Z,9.72
2023-02-15T13:23:28.635Z,9.73
2023-02-15T13:26:32.546Z,9.93
2023-02-15T13:29:37.245Z,9.95
2023-02-15T13:32:41.866Z,9.70
2023-02-15T13:35:53.250Z,9.75
2023-02-15T13:39:03.058Z,9.71
2023-02-15T13:42:15.767Z,9.42
2023-02-15T13:45:26.572Z,9.64
2023-02-15T13:48:56.592Z,9.79
2023-02-15T13:52:26.684Z,9.70
2023-02-15T13:55:45.680Z,9.60
2023-02-15T13:58:57.010Z,9.71
2023-02-15T14:02:19.821Z,9.47
2023-02-15T14:05:33.850Z,9.45
2023-02-15T14:08:54.696Z,9.69
2023-02-15T14:11:59.267Z,9.61
2023-02-15T14:15:25.474Z,9.58
2023-02-15T14:18:51.198Z,9.77
2023-02-15T14:21:59.263Z,9.77
2023-02-15T14:25:18.790Z,9.77
2023-02-15T14:28:36.376Z,9.80
2023-02-15T14:31:42.336Z,9.78
2023-02-15T14:34:56.521Z,9.85
2023-02-15T14:38:10.395Z,9.67
2023-02-15T14:41:32.372Z,9.66
2023-02-15T14:44:39.046Z,9.60
2023-02-15T14:47:49.852Z,9.49
2023-02-15T14:50:51.700Z,9.46
2023-02-15T14:53:53.730Z,9.38
2023-02-15T14:57:18.749Z,9.31
2023-02-15T15:00:33.295Z,9.21
2023-02-15T15:03:36.543Z,9.08
2023-02-15T15:06:40.865Z,8.94
2023-02-15T15:09:44.699Z,8.72
2023-02-15T15:12:51.665Z,8.68
2023-02-15T15:15:54.141Z,8.66
2023-02-15T15:18:56.469Z,8.56
2023-02-15T15:22:04.486Z,8.46
2023-02-15T15:25:11.848Z,8.38
2023-02-15T15:28:42.727Z,8.22
2023-02-15T15:31:49.080Z,8.03
2023-02-15T15:35:13.279Z,7.77
2023-02-15T15:38:37.179Z,7.56
2023-02-15T15:41:50.068Z,7.48
2023-02-15T15:45:24.234Z,7.35
2023-02-15T15:48:38.858Z,7.17
2023-02-15T15:51:42.419Z,7.05
2023-02-15T15:54:45.759Z,6.88
2023-02-15T15:57:51.402Z,6.62
2023-02-15T16:00:58.111Z,6.41
2023-02-15T16:04:00.543Z,6.26
2023-02-15T16:07:14.723Z,6.07
2023-02-15T16:10:24.401Z,5.93
2023-02-15T16:13:26.700Z,5.75
2023-02-15T16:16:30.070Z,5.66
2023-02-15T16:19:36.215Z,5.44
2023-02-15T16:22:39.299Z,5.15
2023-02-15T16:25:41.084Z,5.01
2023-02-15T16:29:02.554Z,4.91
2023-02-15T16:32:07.304Z,4.74
2023-02-15T16:35:14.921Z,4.68
2023-02-15T16:38:17.815Z,4.54
2023-02-15T16:41:26.711Z,4.45
2023-02-15T16:44:33.890Z,4.34
2023-02-15T16:47:41.320Z,4.20
2023-02-15T16:50:48.768Z,4.06
2023-02-15T16:53:53.066Z,3.94
2023-02-15T16:56:55.746Z,3.79
2023-02-15T17:00:04.303Z,3.64
2023-02-15T17:03:12.814Z,3.56
2023-02-15T17:06:27.238Z,3.39
2023-02-15T17:09:29.313Z,3.28
2023-02-15T17:12:57.241Z,3.22
2023-02-15T17:15:59.266Z,3.16
2023-02-15T17:19:03.694Z,3.05
2023-02-15T17:22:25.156Z,2.93
2023-02-15T17:25:36.841Z,2.84
2023-02-15T17:28:39.237Z,2.69
2023-02-15T17:31:41.721Z,2.50
2023-02-15T17:34:44.082Z,2.47
2023-02-15T17:37:51.137Z,2.37
2023-02-15T17:40:53.006Z,2.31
2023-02-15T17:43:55.199Z,2.33
2023-02-15T17:46:59.957Z,2.08
2023-02-15T17:50:03.827Z,2.11
2023-02-15T17:53:08.870Z,2.10
2023-02-15T17:56:11.138Z,2.03
2023-02-15T17:59:15.176Z,1.95
2023-02-15T18:02:36.614Z,1.92
2023-02-15T18:05:57.182Z,1.83
2023-02-15T18:09:18.422Z,1.74
2023-02-15T18:12:31.648Z,1.58
2023-02-15T18:15:33.814Z,1.49
2023-02-15T18:18:35.987Z,1.45
2023-02-15T18:21:40.517Z,1.32
2023-02-15T18:24:44.094Z,1.32
2023-02-15T18:27:48.728Z,1.27
2023-02-15T18:30:51.177Z,1.25
2023-02-15T18:33:58.817Z,1.14
2023-02-15T18:37:02.509Z,1.02
2023-02-15T18:40:07.565Z,1.02
2023-02-15T18:43:13.064Z,0.82
2023-02-15T18:46:15.497Z,0.59
2023-02-15T18:49:17.680Z,0.59
2023-02-15T18:52:26.375Z,0.42
2023-02-15T18:55:29.093Z,0.61
2023-02-15T18:58:31.107Z,0.57
2023-02-15T19:01:33.270Z,0.60
2023-02-15T19:04:36.442Z,0.55
2023-02-15T19:07:39.125Z,0.51
2023-02-15T19:10:41.254Z,0.33
2023-02-15T19:13:48.822Z,0.44
2023-02-15T19:16:50.935Z,0.30
2023-02-15T19:19:53.200Z,0.32
2023-02-15T19:22:56.629Z,0.13
2023-02-15T19:25:59.247Z,0.22
2023-02-15T19:29:02.532Z,0.19
2023-02-15T19:32:04.958Z,0.11
2023-02-15T19:35:20.177Z,0.09
2023-02-15T19:38:35.249Z,-0.14
2023-02-15T19:41:38.541Z,-0.15
2023-02-15T19:44:43.649Z,-0.12
2023-02-15T19:47:48.204Z,-0.08
2023-02-15T19:50:50.564Z,-0.07
2023-02-15T19:53:54.081Z,-0.41
2023-02-15T19:56:57.464Z,-0.33
2023-02-15T20:00:12.331Z,-0.32
2023-02-15T20:03:22.256Z,-0.48
2023-02-15T20:06:24.333Z,-0.47
2023-02-15T20:09:30.589Z,-0.74
2023-02-15T20:12:32.856Z,-0.72
2023-02-15T20:15:35.809Z,-0.80
2023-02-15T20:18:38.090Z,-1.06
2023-02-15T20:21:41.367Z,-0.82
2023-02-15T20:24:43.463Z,-0.77
2023-02-15T20:27:45.908Z,-0.70
2023-02-15T20:30:48.382Z,-0.65
2023-02-15T20:33:51.491Z,-0.71
2023-02-15T20:36:54.900Z,-0.72
2023-02-15T20:39:56.983Z,-0.97
2023-02-15T20:42:58.838Z,-1.02
2023-02-15T20:46:01.405Z,-0.97
2023-02-15T20:49:03.909Z,-1.09
2023-02-15T20:52:19.301Z,-1.09
2023-02-15T20:55:27.017Z,-1.02
2023-02-15T20:58:30.528Z,-1.03
2023-02-15T21:01:32.688Z,-0.97
2023-02-15T21:04:35.880Z,-0.95
2023-02-15T21:07:38.386Z,-0.93
2023-02-15T21:10:45.252Z,-0.93
2023-02-15T21:13:47.913Z,-0.92
2023-02-15T21:16:50.911Z,-0.89
2023-02-15T21:19:53.044Z,-0.93
2023-02-15T21:22:55.869Z,-0.95
2023-02-15T21:25:58.012Z,-1.00
2023-02-15T21:28:59.768Z,-1.10
2023-02-15T21:32:03.858Z,-1.09
2023-02-15T21:35:06.311Z,-1.10
2023-02-15T21:38:14.271Z,-1.19
2023-02-15T21:41:42.629Z,-1.20
2023-02-15T21:45:03.022Z,-1.21
2023-02-15T21:48:05.141Z,-1.22
2023-02-15T21:51:26.314Z,-1.26
2023-02-15T21:54:28.318Z,-1.45
2023-02-15T21:57:30.179Z,-1.44
2023-02-15T22:00:32.725Z,-1.42
2023-02-15T22:03:36.632Z,-1.40
2023-02-15T22:06:38.436Z,-1.39
2023-02-15T22:09:40.170Z,-1.41
2023-02-15T22:12:42.973Z,-1.50
2023-02-15T22:15:47.191Z,-1.50
2023-02-15T22:18:49.151Z,-1.51
2023-02-15T22:21:50.949Z,-1.73
2023-02-15T22:24:52.872Z,-1.65
2023-02-15T22:27:54.903Z,-1.63
2023-02-15T22:30:57.367Z,-1.70
2023-02-15T22:33:59.161Z,-1.61
2023-02-15T22:37:01.235Z,-1.63
2023-02-15T22:40:03.601Z,-1.65
2023-02-15T22:43:06.140Z,-1.75
2023-02-15T22:46:14.382Z,-1.69
2023-02-15T22:49:16.347Z,-1.86
2023-02-15T22:52:18.899Z,-1.84
2023-02-15T22:55:24.174Z,-1.95
2023-02-15T22:58:27.510Z,-1.99
2023-02-15T23:01:34.872Z,-1.90
2023-02-15T23:04:36.641Z,-1.90
2023-02-15T23:07:38.642Z,-1.87
2023-02-15T23:10:42.201Z,-1.90
2023-02-15T23:13:44.074Z,-1.89
2023-02-15T23:16:45.911Z,-1.95
2023-02-15T23:19:47.863Z,-1.99
2023-02-15T23:22:49.907Z,-2.02
2023-02-15T23:25:54.714Z,-2.00
2023-02-15T23:28:59.354Z,-2.02
2023-02-15T23:32:01.316Z,-2.01
2023-02-15T23:35:14.130Z,-2.04
2023-02-15T23:38:21.015Z,-2.06
2023-02-15T23:41:26.378Z,-2.06
2023-02-15T23:44:28.537Z,-2.08
2023-02-15T23:47:51.169Z,-2.09
2023-02-15T23:50:53.198Z,-2.13
2023-02-15T23:53:55.052Z,-2.15
2023-02-15T23:57:00.127Z,-2.17
